Aeroporto :
LOGIN :

Iscrizione | Disclaimer

   EN    FR    IT 

 










Sommario :    VFR   VFR Marginale   IFR   IFR Intensivo   IFR Molto Intensivo
Visibilità : 
Base nubi : 
>= 8 km
>= 3000ft
5 / 8 km
1000 / 3000 ft
1500m / 5 km
500 / 1000 ft
800 / 1500m
200 / 500 ft
< 800m
< 200 ft
Simboli :   Temporali  Nebbia  Neve Forte  Precipitazioni Forti  Vento > 20 kt
SIGMETs :   Varie  Temporali  Ghiacco  Turbolenza  Onda orograficha  Ceneri Vulcaniche






- Altitudine del aeroporto : 510 ft


LJCE - Cerklje

ULTIMO METAR :
  • 130900Z 08009KT 9999 FEW023 28/21 Q1010 RMK BLU

METARs OBSOLETI :
  • 130830Z 07005KT 040V100 9999 FEW023 27/21 Q1010 RMK BLU
  • 130800Z 10004KT 9999 FEW023 27/21 Q1010 RMK BLU
  • 130730Z VRB02KT 9999 FEW020 26/21 Q1010 RMK BLU
  • 130700Z VRB01KT 9999 FEW020 26/21 Q1010 RMK BLU
  • 130630Z VRB02KT 9999 FEW020 25/21 Q1010 RMK BLU
  • 130600Z VRB02KT 9999 FEW020 24/21 Q1010 RMK BLU
  • 130530Z VRB02KT CAVOK 23/20 Q1010 RMK BLU
  • 130500Z AUTO 00000KT 9999 NSC 22/20 Q1010
  • 130430Z AUTO VRB03KT 9999 NCD 21/20 Q1010

TAF TAF LJCE
Valido dal 13 a 09 ore il 13 a 18 ore UTC


130800Z 1309/1318 08005KT CAVOK



MetMap, La meteo Aeronautica in un colpo d'occhio ! - Copyright ORBIFLY Dicembre 2007 - Disclaimer

ORBIFLY MET'MAP TEAM :

Programmazione e sviluppo : Alexandra Zaïnal
Concezione : Baudouin d'Aumeries
Supporto tecnico e logistico : Manuel Goepfert
Aiuto : Marc-Olivier Méhu
Aiuto per la traduzione : Arnaldo La Scala




FONTI E CREDITI :

   NOAA